createdAt,value
2019-01-15T00:02:03.194Z,3.73
2019-01-15T00:04:33.714Z,4.53
2019-01-15T00:07:04.147Z,3.87
2019-01-15T00:09:34.406Z,4.17
2019-01-15T00:12:07.892Z,4.53
2019-01-15T00:14:36.637Z,4.90
2019-01-15T00:17:06.861Z,4.33
2019-01-15T00:19:37.223Z,4.60
2019-01-15T00:22:07.792Z,4.47
2019-01-15T00:24:37.924Z,4.60
2019-01-15T00:27:08.423Z,4.50
2019-01-15T00:29:38.600Z,4.50
2019-01-15T00:32:08.759Z,4.83
2019-01-15T00:34:38.925Z,4.43
2019-01-15T00:37:09.200Z,5.30
2019-01-15T00:39:40.371Z,4.40
2019-01-15T00:42:15.173Z,4.47
2019-01-15T00:44:42.747Z,5.00
2019-01-15T00:47:12.910Z,4.60
2019-01-15T00:49:43.097Z,4.83
2019-01-15T00:52:13.261Z,4.87
2019-01-15T00:54:43.520Z,4.63
2019-01-15T00:57:13.990Z,5.13
2019-01-15T00:59:44.216Z,5.73
2019-01-15T01:02:14.453Z,5.07
2019-01-15T01:04:44.696Z,4.67
2019-01-15T01:07:14.874Z,4.57
2019-01-15T01:09:45.109Z,4.23
2019-01-15T01:12:22.051Z,4.90
2019-01-15T01:14:47.415Z,4.97
2019-01-15T01:17:17.591Z,4.87
2019-01-15T01:19:48.047Z,4.53
2019-01-15T01:22:18.293Z,4.73
2019-01-15T01:24:48.492Z,4.60
2019-01-15T01:27:18.590Z,4.07
2019-01-15T01:29:48.739Z,4.67
2019-01-15T01:32:19.401Z,4.80
2019-01-15T01:34:49.542Z,4.13
2019-01-15T01:48:39.110Z,4.70
2019-01-15T01:51:09.429Z,4.63
2019-01-15T01:53:39.559Z,4.70
2019-01-15T01:56:09.858Z,5.33
2019-01-15T01:58:40.010Z,5.00
2019-01-15T02:01:10.306Z,4.57
2019-01-15T02:03:40.507Z,4.53
2019-01-15T02:06:10.777Z,4.77
2019-01-15T02:08:41.066Z,4.40
2019-01-15T02:11:11.278Z,4.70
2019-01-15T02:13:41.475Z,4.43
2019-01-15T02:16:11.690Z,4.40
2019-01-15T02:21:48.998Z,4.80
2019-01-15T02:24:19.492Z,4.37
2019-01-15T02:26:49.703Z,4.60
2019-01-15T02:29:19.994Z,4.37
2019-01-15T02:31:50.298Z,4.57
2019-01-15T02:34:20.548Z,4.20
2019-01-15T02:36:50.630Z,4.23
2019-01-15T02:39:20.887Z,4.60
2019-01-15T02:41:51.079Z,5.27
2019-01-15T02:44:21.222Z,5.23
2019-01-15T02:46:51.373Z,4.47
2019-01-15T02:49:21.477Z,5.40
2019-01-15T02:51:51.647Z,5.07
2019-01-15T02:54:21.827Z,5.07
2019-01-15T02:56:52.060Z,5.70
2019-01-15T02:59:22.339Z,4.93
2019-01-15T03:01:52.588Z,5.97
2019-01-15T03:04:22.756Z,7.07
2019-01-15T03:06:52.908Z,5.70
2019-01-15T03:09:23.191Z,5.97
2019-01-15T03:11:53.461Z,6.80
2019-01-15T03:14:23.663Z,6.80
2019-01-15T03:16:53.861Z,5.80
2019-01-15T03:19:24.337Z,6.17
2019-01-15T03:21:54.549Z,6.50
2019-01-15T03:24:24.701Z,6.40
2019-01-15T03:26:54.959Z,6.13
2019-01-15T03:29:25.230Z,6.87
2019-01-15T03:31:55.484Z,6.80
2019-01-15T03:34:25.621Z,5.90
2019-01-15T03:36:55.824Z,6.27
2019-01-15T03:39:26.066Z,5.67
2019-01-15T03:41:56.224Z,6.03
2019-01-15T03:44:26.491Z,6.67
2019-01-15T03:46:56.626Z,6.57
2019-01-15T03:49:26.847Z,6.93
2019-01-15T03:51:57.029Z,7.10
2019-01-15T03:54:27.233Z,6.60
2019-01-15T03:56:57.354Z,7.10
2019-01-15T03:59:27.665Z,6.10
2019-01-15T04:01:57.946Z,6.90
2019-01-15T04:04:28.083Z,6.70
2019-01-15T04:06:58.337Z,6.20
2019-01-15T04:12:09.990Z,6.97
2019-01-15T04:14:52.249Z,6.90
2019-01-15T04:17:34.020Z,6.53
2019-01-15T04:20:15.682Z,6.20
2019-01-15T04:22:57.103Z,6.20
2019-01-15T04:25:39.192Z,6.53
2019-01-15T04:28:21.034Z,6.40
2019-01-15T04:31:02.817Z,6.00
2019-01-15T04:33:44.397Z,7.47
2019-01-15T04:36:26.410Z,6.53
2019-01-15T04:39:08.271Z,6.93
2019-01-15T04:41:50.254Z,7.63
2019-01-15T04:44:32.260Z,7.70
2019-01-15T04:47:02.347Z,6.97
2019-01-15T04:49:32.322Z,7.50
2019-01-15T04:52:14.200Z,8.70
2019-01-15T04:54:56.160Z,7.87
2019-01-15T04:57:38.022Z,7.93
2019-01-15T05:00:20.036Z,8.07
2019-01-15T05:03:04.177Z,9.03
2019-01-15T05:05:46.137Z,8.73
2019-01-15T05:08:28.183Z,9.53
2019-01-15T05:10:58.248Z,8.70
2019-01-15T05:13:47.343Z,9.33
2019-01-15T05:16:29.433Z,8.00
2019-01-15T05:19:11.554Z,9.17
2019-01-15T05:21:53.751Z,9.67
2019-01-15T05:24:35.734Z,9.67
2019-01-15T05:27:05.707Z,9.43
2019-01-15T05:29:47.801Z,9.57
2019-01-15T05:32:29.766Z,10.30
2019-01-15T05:35:11.782Z,8.83
2019-01-15T05:37:53.498Z,7.13
2019-01-15T05:40:35.576Z,10.23
2019-01-15T05:43:17.054Z,9.30
2019-01-15T05:45:58.640Z,10.50
2019-01-15T05:48:40.663Z,8.70
2019-01-15T05:51:41.382Z,8.33
2019-01-15T05:54:21.579Z,9.87
2019-01-15T05:57:10.682Z,10.23
2019-01-15T05:59:52.505Z,9.53
2019-01-15T06:02:34.430Z,9.13
2019-01-15T06:05:15.881Z,9.43
2019-01-15T06:07:57.610Z,9.33
2019-01-15T06:10:38.987Z,9.37
2019-01-15T06:13:20.976Z,8.80
2019-01-15T06:16:02.970Z,9.37
2019-01-15T06:18:45.486Z,8.47
2019-01-15T06:21:27.179Z,8.77
2019-01-15T06:24:09.171Z,8.90
2019-01-15T06:26:50.910Z,9.60
2019-01-15T06:29:32.245Z,8.20
2019-01-15T06:32:14.182Z,8.67
2019-01-15T06:34:55.959Z,9.00
2019-01-15T06:37:37.786Z,8.30
2019-01-15T06:40:19.754Z,9.33
2019-01-15T06:43:01.722Z,8.87
2019-01-15T06:45:43.683Z,8.60
2019-01-15T06:48:25.263Z,8.63
2019-01-15T06:51:07.499Z,9.07
2019-01-15T06:53:50.024Z,8.67
2019-01-15T06:56:31.932Z,8.83
2019-01-15T06:59:13.338Z,8.10
2019-01-15T07:01:55.364Z,8.00
2019-01-15T07:04:43.626Z,8.47
2019-01-15T07:07:20.310Z,7.10
2019-01-15T07:10:02.565Z,8.27
2019-01-15T07:12:44.289Z,8.77
2019-01-15T07:15:26.433Z,9.57
2019-01-15T07:18:07.165Z,9.17
2019-01-15T07:20:57.402Z,8.63
2019-01-15T07:23:45.226Z,9.90
2019-01-15T07:26:27.378Z,9.73
2019-01-15T07:29:08.785Z,9.33
2019-01-15T07:31:50.158Z,9.70
2019-01-15T07:34:32.053Z,9.07
2019-01-15T07:37:13.629Z,8.73
2019-01-15T07:39:56.151Z,9.63
2019-01-15T07:42:26.196Z,9.60
2019-01-15T07:44:56.285Z,9.47
2019-01-15T07:47:26.644Z,10.20
2019-01-15T07:49:56.678Z,10.27
2019-01-15T07:52:26.867Z,9.87
2019-01-15T07:55:16.458Z,10.23
2019-01-15T07:57:46.493Z,11.63
2019-01-15T08:00:35.989Z,11.07
2019-01-15T08:03:18.022Z,10.47
2019-01-15T08:05:59.972Z,9.83
2019-01-15T08:08:42.059Z,11.40
2019-01-15T08:11:24.035Z,11.27
2019-01-15T08:13:54.186Z,10.77
2019-01-15T08:16:43.313Z,11.53
2019-01-15T08:19:25.306Z,11.57
2019-01-15T08:22:07.383Z,10.33
2019-01-15T08:24:49.418Z,11.80
2019-01-15T08:27:31.368Z,12.07
2019-01-15T08:30:13.332Z,12.67
2019-01-15T08:32:53.450Z,10.67
2019-01-15T08:35:42.597Z,11.97
2019-01-15T08:38:24.793Z,12.37
2019-01-15T08:41:06.806Z,12.67
2019-01-15T08:43:48.135Z,12.27
2019-01-15T08:46:29.823Z,14.33
2019-01-15T08:49:11.997Z,12.03
2019-01-15T08:51:54.331Z,12.87
2019-01-15T08:54:36.393Z,12.37
2019-01-15T08:57:18.281Z,14.67
2019-01-15T09:00:02.160Z,11.33
2019-01-15T09:02:43.640Z,11.93
2019-01-15T09:05:25.106Z,11.37
2019-01-15T09:08:07.222Z,11.67
2019-01-15T09:10:49.113Z,11.67
2019-01-15T09:13:31.245Z,13.27
2019-01-15T09:16:13.601Z,11.63
2019-01-15T09:18:55.317Z,11.10
2019-01-15T09:21:37.615Z,11.53
2019-01-15T09:24:18.934Z,11.40
2019-01-15T09:27:00.992Z,11.27
2019-01-15T09:29:42.383Z,10.10
2019-01-15T09:32:24.062Z,11.07
2019-01-15T09:35:06.339Z,11.03
2019-01-15T09:37:49.884Z,12.23
2019-01-15T09:40:31.801Z,10.07
2019-01-15T09:43:13.836Z,10.40
2019-01-15T09:45:55.620Z,9.77
2019-01-15T09:48:38.159Z,9.73
2019-01-15T09:51:20.323Z,10.43
2019-01-15T09:54:02.622Z,11.73
2019-01-15T09:56:44.541Z,9.57
2019-01-15T09:59:26.803Z,9.63
2019-01-15T10:02:08.471Z,9.23
2019-01-15T10:04:50.149Z,9.20
2019-01-15T10:07:31.954Z,8.50
2019-01-15T10:10:13.746Z,7.53
2019-01-15T10:12:55.882Z,9.33
2019-01-15T10:15:37.290Z,8.77
2019-01-15T10:18:19.247Z,8.73
2019-01-15T10:21:01.101Z,9.30
2019-01-15T10:23:42.857Z,8.00
2019-01-15T10:26:24.893Z,8.43
2019-01-15T10:29:06.969Z,8.37
2019-01-15T10:31:49.052Z,9.53
2019-01-15T10:34:30.950Z,7.97
2019-01-15T10:37:13.140Z,8.10
2019-01-15T10:39:54.754Z,8.37
2019-01-15T10:42:37.011Z,8.33
2019-01-15T10:45:18.345Z,7.30
2019-01-15T10:48:00.433Z,7.27
2019-01-15T10:50:42.491Z,7.00
2019-01-15T10:53:24.669Z,7.47
2019-01-15T10:56:06.767Z,6.70
2019-01-15T10:58:48.781Z,6.67
2019-01-15T11:01:30.466Z,7.17
2019-01-15T11:04:13.707Z,7.00
2019-01-15T11:06:55.601Z,6.37
2019-01-15T11:09:37.785Z,6.77
2019-01-15T11:12:19.870Z,5.57
2019-01-15T11:15:02.154Z,6.33
2019-01-15T11:17:43.722Z,5.60
2019-01-15T11:20:26.210Z,6.33
2019-01-15T11:23:08.146Z,5.90
2019-01-15T11:25:50.418Z,6.43
2019-01-15T11:28:32.357Z,5.73
2019-01-15T11:31:14.410Z,4.93
2019-01-15T11:33:55.902Z,5.50
2019-01-15T11:36:37.627Z,5.67
2019-01-15T11:39:19.660Z,5.53
2019-01-15T11:42:01.042Z,5.10
2019-01-15T11:44:42.938Z,5.10
2019-01-15T11:47:25.170Z,5.40
2019-01-15T11:50:07.541Z,4.87
2019-01-15T11:52:49.241Z,4.77
2019-01-15T11:55:31.353Z,4.37
2019-01-15T11:58:13.135Z,4.30
2019-01-15T12:01:13.726Z,4.47
2019-01-15T12:04:20.440Z,4.23
2019-01-15T12:07:24.056Z,3.90
2019-01-15T12:10:17.548Z,4.17
2019-01-15T12:13:18.479Z,4.00
2019-01-15T12:16:19.573Z,4.10
2019-01-15T12:19:23.085Z,4.20
2019-01-15T12:22:25.400Z,3.87
2019-01-15T12:25:18.542Z,4.30
2019-01-15T12:28:19.248Z,3.53
2019-01-15T12:31:18.894Z,3.87
2019-01-15T12:34:20.646Z,3.70
2019-01-15T12:37:21.434Z,4.03
2019-01-15T12:40:21.972Z,4.00
2019-01-15T12:43:22.464Z,3.20
2019-01-15T12:46:29.431Z,3.80
2019-01-15T12:52:37.042Z,3.90
2019-01-15T12:55:40.920Z,3.53
2019-01-15T12:58:41.935Z,3.83
2019-01-15T13:01:42.944Z,3.47
2019-01-15T13:04:43.578Z,3.30
2019-01-15T13:07:44.447Z,3.20
2019-01-15T13:10:44.978Z,2.90
2019-01-15T13:13:45.715Z,3.10
2019-01-15T13:16:34.756Z,3.17
2019-01-15T13:19:37.538Z,2.90
2019-01-15T13:22:38.367Z,2.73
2019-01-15T13:25:39.336Z,2.97
2019-01-15T13:28:40.267Z,3.00
2019-01-15T13:31:41.602Z,3.57
2019-01-15T13:34:38.077Z,2.50
2019-01-15T13:37:39.041Z,2.87
2019-01-15T13:40:42.683Z,3.13
2019-01-15T13:43:36.781Z,2.80
2019-01-15T13:46:28.805Z,3.50
2019-01-15T13:49:29.386Z,2.83
2019-01-15T13:52:29.951Z,3.00
2019-01-15T13:55:38.103Z,2.40
2019-01-15T13:58:38.930Z,2.43
2019-01-15T14:01:40.372Z,2.70
2019-01-15T14:04:41.166Z,2.53
2019-01-15T14:07:42.404Z,3.07
2019-01-15T14:10:32.031Z,2.70
2019-01-15T14:13:32.746Z,3.20
2019-01-15T14:16:32.597Z,3.17
2019-01-15T14:19:33.440Z,2.60
2019-01-15T14:22:34.623Z,2.63
2019-01-15T14:25:35.470Z,2.50
2019-01-15T14:28:36.207Z,2.87
2019-01-15T14:31:37.139Z,2.40
2019-01-15T14:34:35.035Z,2.10
2019-01-15T14:37:35.890Z,2.70
2019-01-15T14:40:36.803Z,2.90
2019-01-15T14:43:37.964Z,2.50
2019-01-15T14:46:32.491Z,2.53
2019-01-15T14:49:36.270Z,3.70
2019-01-15T14:52:43.310Z,2.60
2019-01-15T14:55:44.107Z,2.33
2019-01-15T14:58:44.906Z,3.37
2019-01-15T15:01:48.945Z,2.50
2019-01-15T15:04:52.319Z,2.60
2019-01-15T15:07:53.406Z,2.80
2019-01-15T15:10:41.547Z,2.70
2019-01-15T15:13:42.708Z,2.53
2019-01-15T15:16:34.814Z,2.73
2019-01-15T15:19:35.569Z,2.67
2019-01-15T15:22:36.198Z,2.43
2019-01-15T15:25:31.439Z,2.80
2019-01-15T15:28:32.019Z,2.97
2019-01-15T15:31:32.964Z,3.00
2019-01-15T15:34:33.641Z,2.70
2019-01-15T15:37:34.330Z,2.60
2019-01-15T15:40:31.579Z,2.67
2019-01-15T15:43:32.708Z,2.70
2019-01-15T15:46:39.143Z,2.83
2019-01-15T15:49:45.857Z,3.30
2019-01-15T15:52:46.753Z,3.43
2019-01-15T15:55:47.788Z,3.07
2019-01-15T15:58:49.126Z,3.60
2019-01-15T16:01:56.011Z,2.67
2019-01-15T16:04:56.808Z,3.23
2019-01-15T16:08:01.783Z,3.10
2019-01-15T16:11:11.037Z,1.93
2019-01-15T16:14:27.262Z,3.43
2019-01-15T16:17:27.722Z,2.90
2019-01-15T16:20:28.717Z,2.80
2019-01-15T16:23:35.639Z,10.70
2019-01-15T16:26:36.758Z,2.87
2019-01-15T16:29:37.390Z,2.67
2019-01-15T16:32:38.706Z,3.20
2019-01-15T16:39:03.798Z,3.20
2019-01-15T16:42:06.556Z,2.93
2019-01-15T16:45:07.385Z,2.97
2019-01-15T16:48:08.214Z,2.80
2019-01-15T16:51:09.067Z,3.20
2019-01-15T16:54:10.025Z,2.80
2019-01-15T16:57:16.946Z,3.40
2019-01-15T17:00:18.271Z,3.00
2019-01-15T17:03:18.894Z,3.57
2019-01-15T17:06:25.783Z,3.17
2019-01-15T17:09:26.413Z,3.47
2019-01-15T17:12:27.389Z,3.37
2019-01-15T17:15:28.063Z,3.40
2019-01-15T17:18:32.022Z,4.13
2019-01-15T17:21:31.667Z,3.83
2019-01-15T17:24:23.745Z,4.07
2019-01-15T17:27:24.159Z,3.40
2019-01-15T17:30:32.868Z,3.93
2019-01-15T17:33:33.579Z,3.90
2019-01-15T17:36:34.342Z,4.47
2019-01-15T17:39:40.790Z,4.03
2019-01-15T17:42:44.727Z,4.00
2019-01-15T17:45:44.288Z,4.27
2019-01-15T17:48:45.397Z,4.00
2019-01-15T17:51:49.311Z,4.20
2019-01-15T17:54:42.670Z,4.07
2019-01-15T17:57:35.601Z,4.07
2019-01-15T18:00:37.168Z,4.47
2019-01-15T18:03:43.666Z,4.40
2019-01-15T18:06:32.767Z,4.43
2019-01-15T18:09:40.913Z,4.93
2019-01-15T18:12:29.923Z,4.37
2019-01-15T18:15:19.128Z,4.37
2019-01-15T18:18:18.381Z,4.43
2019-01-15T18:21:07.410Z,4.13
2019-01-15T18:24:15.815Z,3.83
2019-01-15T18:27:04.840Z,4.30
2019-01-15T18:29:53.903Z,4.27
2019-01-15T18:32:42.934Z,4.10
2019-01-15T18:35:51.075Z,4.80
2019-01-15T18:38:51.899Z,4.40
2019-01-15T18:41:44.083Z,3.73
2019-01-15T18:44:43.146Z,4.47
2019-01-15T18:47:44.415Z,4.40
2019-01-15T18:50:33.601Z,4.57
2019-01-15T18:53:33.065Z,4.53
2019-01-15T18:56:34.184Z,4.23
2019-01-15T18:59:41.206Z,4.47
2019-01-15T19:02:47.754Z,4.10
2019-01-15T19:05:56.560Z,4.67
2019-01-15T19:09:00.760Z,4.30
2019-01-15T19:12:02.977Z,4.40
2019-01-15T19:15:07.931Z,4.13
2019-01-15T19:18:16.911Z,4.70
2019-01-15T19:21:17.554Z,4.77
2019-01-15T19:24:18.571Z,4.27
2019-01-15T19:27:12.202Z,4.10
2019-01-15T19:30:19.145Z,4.50
2019-01-15T19:33:21.047Z,4.37
2019-01-15T19:36:22.004Z,4.30
2019-01-15T19:39:22.839Z,4.10
2019-01-15T19:42:23.609Z,4.43
2019-01-15T19:45:24.567Z,4.27
2019-01-15T19:48:25.550Z,4.13
2019-01-15T19:51:25.800Z,4.03
2019-01-15T19:54:27.053Z,3.93
2019-01-15T19:57:23.688Z,3.93
2019-01-15T20:03:26.922Z,4.00
2019-01-15T20:06:16.049Z,3.20
2019-01-15T20:09:26.099Z,4.30
2019-01-15T20:12:10.901Z,3.63
2019-01-15T20:14:59.926Z,3.70
2019-01-15T20:17:57.735Z,3.67
2019-01-15T20:20:58.755Z,4.00
2019-01-15T20:23:59.901Z,4.27
2019-01-15T20:26:42.841Z,4.03
2019-01-15T20:29:50.957Z,3.97
2019-01-15T20:32:51.927Z,4.23
2019-01-15T20:35:53.227Z,4.00
2019-01-15T20:39:00.407Z,3.70
2019-01-15T20:42:02.699Z,4.30
2019-01-15T20:45:03.486Z,4.10
2019-01-15T20:48:08.271Z,4.50
2019-01-15T20:51:03.862Z,4.70
2019-01-15T20:54:13.250Z,4.60
2019-01-15T20:57:21.392Z,4.70
2019-01-15T21:00:10.418Z,4.90
2019-01-15T21:03:18.646Z,4.77
2019-01-15T21:06:19.440Z,4.83
2019-01-15T21:09:19.809Z,4.10
2019-01-15T21:12:20.539Z,4.30
2019-01-15T21:15:21.213Z,4.77
2019-01-15T21:18:27.994Z,4.17
2019-01-15T21:21:28.571Z,4.70
2019-01-15T21:24:29.226Z,4.67
2019-01-15T21:27:30.021Z,5.03
2019-01-15T21:30:30.656Z,4.77
2019-01-15T21:33:31.553Z,4.80
2019-01-15T21:36:33.608Z,5.93
2019-01-15T21:39:41.956Z,5.63
2019-01-15T21:42:48.617Z,5.83
2019-01-15T21:45:49.493Z,5.77
2019-01-15T21:48:50.295Z,6.43
2019-01-15T21:51:51.373Z,5.40
2019-01-15T21:54:52.012Z,6.13
2019-01-15T21:57:52.818Z,5.20
2019-01-15T22:00:54.568Z,5.80
2019-01-15T22:03:55.622Z,6.20
2019-01-15T22:06:56.367Z,5.47
2019-01-15T22:09:57.004Z,5.80
2019-01-15T22:12:57.837Z,4.97
2019-01-15T22:15:58.794Z,5.63
2019-01-15T22:18:59.867Z,5.87
2019-01-15T22:22:00.894Z,5.90
2019-01-15T22:25:01.538Z,5.93
2019-01-15T22:28:02.590Z,6.27
2019-01-15T22:30:54.796Z,6.07
2019-01-15T22:33:55.978Z,5.57
2019-01-15T22:36:56.914Z,6.20
2019-01-15T22:39:57.787Z,6.07
2019-01-15T22:43:01.522Z,5.37
2019-01-15T22:46:02.690Z,6.80
2019-01-15T22:49:06.809Z,6.70
2019-01-15T22:51:55.866Z,5.70
2019-01-15T22:54:58.798Z,6.40
2019-01-15T22:58:05.235Z,6.57
2019-01-15T23:01:06.176Z,6.53
2019-01-15T23:04:14.662Z,6.67
2019-01-15T23:07:03.706Z,6.67
2019-01-15T23:10:11.858Z,6.57
2019-01-15T23:13:02.555Z,6.47
2019-01-15T23:15:51.704Z,6.60
2019-01-15T23:18:52.054Z,6.97
2019-01-15T23:21:53.111Z,6.97
2019-01-15T23:24:49.972Z,7.13
2019-01-15T23:27:43.247Z,7.23
2019-01-15T23:30:44.403Z,7.00
2019-01-15T23:33:35.654Z,7.13
2019-01-15T23:36:36.620Z,6.90
2019-01-15T23:39:37.501Z,6.97
2019-01-15T23:42:26.644Z,7.23
2019-01-15T23:45:35.286Z,6.70
2019-01-15T23:48:24.443Z,7.13
2019-01-15T23:51:22.572Z,7.07
2019-01-15T23:54:23.695Z,5.93
2019-01-15T23:57:24.308Z,6.43
